createdAt,value
2023-05-06T00:00:44.166Z,25.86
2023-05-06T00:01:44.178Z,29.60
2023-05-06T00:02:44.743Z,28.86
2023-05-06T00:03:44.552Z,30.19
2023-05-06T00:04:44.334Z,27.21
2023-05-06T00:05:44.371Z,32.06
2023-05-06T00:06:44.353Z,30.87
2023-05-06T00:07:44.409Z,31.15
2023-05-06T00:08:44.457Z,29.70
2023-05-06T00:09:44.460Z,31.59
2023-05-06T00:10:44.497Z,31.27
2023-05-06T00:11:44.547Z,28.29
2023-05-06T00:12:44.666Z,29.59
2023-05-06T00:13:44.612Z,25.88
2023-05-06T00:14:44.675Z,32.07
2023-05-06T00:15:44.694Z,28.08
2023-05-06T00:16:44.952Z,29.46
2023-05-06T00:17:45.152Z,30.97
2023-05-06T00:18:44.811Z,30.88
2023-05-06T00:19:44.874Z,28.33
2023-05-06T00:20:44.887Z,31.50
2023-05-06T00:21:44.906Z,31.32
2023-05-06T00:22:45.009Z,29.68
2023-05-06T00:23:44.986Z,31.36
2023-05-06T00:24:45.036Z,30.58
2023-05-06T00:25:45.080Z,27.71
2023-05-06T00:26:45.115Z,29.93
2023-05-06T00:27:45.159Z,30.41
2023-05-06T00:28:45.188Z,29.47
2023-05-06T00:29:45.212Z,29.93
2023-05-06T00:30:45.248Z,27.94
2023-05-06T00:31:45.399Z,30.31
2023-05-06T00:32:45.365Z,30.46
2023-05-06T00:33:45.373Z,29.07
2023-05-06T00:34:45.550Z,30.72
2023-05-06T00:35:45.468Z,32.46
2023-05-06T00:36:45.502Z,27.87
2023-05-06T00:37:45.508Z,30.53
2023-05-06T00:38:45.541Z,30.66
2023-05-06T00:39:45.564Z,27.88
2023-05-06T00:40:45.612Z,27.31
2023-05-06T00:41:45.647Z,29.09
2023-05-06T00:42:45.697Z,29.92
2023-05-06T00:43:45.751Z,31.12
2023-05-06T00:44:45.794Z,27.54
2023-05-06T00:45:45.847Z,27.85
2023-05-06T00:46:45.853Z,31.15
2023-05-06T00:47:45.928Z,30.20
2023-05-06T00:48:45.914Z,29.56
2023-05-06T00:49:45.928Z,29.19
2023-05-06T00:50:45.972Z,30.58
2023-05-06T00:51:46.005Z,31.24
2023-05-06T00:52:46.056Z,28.91
2023-05-06T00:53:46.064Z,30.75
2023-05-06T00:54:46.133Z,29.51
2023-05-06T00:55:46.182Z,30.00
2023-05-06T00:56:46.205Z,27.07
2023-05-06T00:57:46.257Z,28.01
2023-05-06T00:58:46.291Z,30.98
2023-05-06T00:59:46.346Z,28.13
2023-05-06T01:00:46.431Z,29.43
2023-05-06T01:01:46.414Z,27.36
2023-05-06T01:02:47.876Z,29.04
2023-05-06T01:03:46.532Z,32.59
2023-05-06T01:04:46.596Z,28.42
2023-05-06T01:05:46.600Z,26.68
2023-05-06T01:06:46.685Z,29.41
2023-05-06T01:07:46.666Z,31.00
2023-05-06T01:08:46.699Z,31.86
2023-05-06T01:09:46.750Z,30.58
2023-05-06T01:10:46.785Z,29.31
2023-05-06T01:11:46.829Z,30.21
2023-05-06T01:12:46.905Z,31.13
2023-05-06T01:13:46.925Z,30.49
2023-05-06T01:14:46.972Z,27.34
2023-05-06T01:15:46.974Z,29.27
2023-05-06T01:16:47.006Z,28.52
2023-05-06T01:17:47.074Z,30.09
2023-05-06T01:18:47.097Z,27.41
2023-05-06T01:19:47.115Z,27.81
2023-05-06T01:20:47.175Z,28.56
2023-05-06T01:21:47.237Z,31.84
2023-05-06T01:22:47.329Z,26.67
2023-05-06T01:23:47.274Z,29.21
2023-05-06T01:24:47.346Z,29.48
2023-05-06T01:25:47.380Z,28.71
2023-05-06T01:26:47.419Z,28.70
2023-05-06T01:27:47.451Z,27.42
2023-05-06T01:28:47.501Z,27.67
2023-05-06T01:29:47.562Z,29.29
2023-05-06T01:30:47.728Z,27.81
2023-05-06T01:31:47.617Z,28.44
2023-05-06T01:32:47.705Z,27.26
2023-05-06T01:33:47.718Z,29.39
2023-05-06T01:34:47.750Z,29.95
2023-05-06T01:35:47.799Z,28.76
2023-05-06T01:36:47.899Z,28.19
2023-05-06T01:37:48.152Z,30.30
2023-05-06T01:38:48.040Z,28.25
2023-05-06T01:39:47.974Z,28.13
2023-05-06T01:40:48.040Z,28.74
2023-05-06T01:41:48.051Z,30.51
2023-05-06T01:42:48.153Z,30.83
2023-05-06T01:43:48.157Z,28.57
2023-05-06T01:44:48.175Z,31.09
2023-05-06T01:45:48.238Z,27.29
2023-05-06T01:46:48.379Z,30.26
2023-05-06T01:47:48.407Z,29.42
2023-05-06T01:48:48.347Z,29.15
2023-05-06T01:49:48.390Z,29.77
2023-05-06T01:50:48.422Z,32.25
2023-05-06T01:51:48.609Z,30.74
2023-05-06T01:52:48.556Z,31.44
2023-05-06T01:53:48.593Z,30.78
2023-05-06T01:54:48.773Z,32.36
2023-05-06T01:55:48.714Z,29.37
2023-05-06T01:56:48.807Z,29.21
2023-05-06T01:57:48.864Z,29.33
2023-05-06T01:58:48.900Z,30.77
2023-05-06T01:59:48.961Z,30.99
2023-05-06T02:00:49.001Z,30.64
2023-05-06T02:01:49.102Z,29.60
2023-05-06T02:02:49.179Z,32.38
2023-05-06T02:03:49.246Z,30.04
2023-05-06T02:04:49.211Z,29.01
2023-05-06T02:05:49.257Z,27.51
2023-05-06T02:06:49.321Z,26.26
2023-05-06T02:07:49.326Z,30.61
2023-05-06T02:08:49.390Z,27.66
2023-05-06T02:09:49.431Z,28.72
2023-05-06T02:10:49.516Z,31.47
2023-05-06T02:11:49.528Z,29.39
2023-05-06T02:12:49.637Z,30.30
2023-05-06T02:13:49.635Z,31.60
2023-05-06T02:14:49.660Z,29.46
2023-05-06T02:15:49.772Z,29.84
2023-05-06T02:16:49.824Z,27.73
2023-05-06T02:17:49.892Z,28.60
2023-05-06T02:18:49.909Z,31.94
2023-05-06T02:19:49.953Z,29.61
2023-05-06T02:20:49.977Z,30.21
2023-05-06T02:21:50.055Z,29.47
2023-05-06T02:22:50.205Z,31.07
2023-05-06T02:23:50.180Z,31.43
2023-05-06T02:24:50.218Z,31.91
2023-05-06T02:25:50.307Z,31.36
2023-05-06T02:26:50.320Z,26.67
2023-05-06T02:27:50.386Z,29.10
2023-05-06T02:28:50.405Z,30.88
2023-05-06T02:29:50.452Z,30.19
2023-05-06T02:30:50.505Z,30.64
2023-05-06T02:31:50.613Z,28.60
2023-05-06T02:32:50.752Z,27.85
2023-05-06T02:33:50.676Z,29.14
2023-05-06T02:34:50.736Z,29.87
2023-05-06T02:35:50.793Z,30.59
2023-05-06T02:36:50.832Z,29.50
2023-05-06T02:37:50.879Z,27.89
2023-05-06T02:38:50.917Z,28.22
2023-05-06T02:39:50.991Z,26.09
2023-05-06T02:40:51.072Z,27.44
2023-05-06T02:41:51.109Z,29.97
2023-05-06T02:42:51.260Z,29.76
2023-05-06T02:43:51.247Z,26.85
2023-05-06T02:44:51.277Z,29.79
2023-05-06T02:45:51.356Z,28.23
2023-05-06T02:46:51.349Z,28.40
2023-05-06T02:47:51.491Z,26.60
2023-05-06T02:48:51.487Z,28.47
2023-05-06T02:49:51.537Z,28.81
2023-05-06T02:50:51.575Z,31.06
2023-05-06T02:51:51.633Z,29.48
2023-05-06T02:52:51.806Z,29.51
2023-05-06T02:53:51.751Z,26.94
2023-05-06T02:54:51.823Z,29.06
2023-05-06T02:55:51.858Z,31.42
2023-05-06T02:56:51.885Z,30.69
2023-05-06T02:57:52.005Z,27.02
2023-05-06T02:58:52.014Z,29.81
2023-05-06T02:59:52.082Z,27.27
2023-05-06T03:00:52.146Z,27.64
2023-05-06T03:01:52.206Z,29.11
2023-05-06T03:02:52.287Z,27.17
2023-05-06T03:03:53.253Z,27.09
2023-05-06T03:04:52.387Z,29.00
2023-05-06T03:05:52.439Z,30.01
2023-05-06T03:06:52.497Z,30.50
2023-05-06T03:07:52.561Z,29.14
2023-05-06T03:08:52.631Z,29.76
2023-05-06T03:09:52.717Z,26.15
2023-05-06T03:10:52.737Z,29.96
2023-05-06T03:11:52.826Z,29.08
2023-05-06T03:12:52.924Z,33.08
2023-05-06T03:13:52.951Z,28.50
2023-05-06T03:14:53.341Z,27.21
2023-05-06T03:15:53.072Z,31.40
2023-05-06T03:16:53.242Z,28.70
2023-05-06T03:17:53.287Z,29.89
2023-05-06T03:18:53.243Z,28.45
2023-05-06T03:19:53.291Z,30.23
2023-05-06T03:20:53.396Z,28.92
2023-05-06T03:21:53.393Z,29.45
2023-05-06T03:22:53.472Z,30.76
2023-05-06T03:23:53.515Z,30.46
2023-05-06T03:24:53.566Z,32.05
2023-05-06T03:25:53.626Z,26.49
2023-05-06T03:26:53.680Z,29.12
2023-05-06T03:27:53.735Z,28.63
2023-05-06T03:28:53.799Z,29.27
2023-05-06T03:29:53.863Z,30.91
2023-05-06T03:30:53.925Z,28.26
2023-05-06T03:31:54.068Z,30.98
2023-05-06T03:32:54.095Z,32.49
2023-05-06T03:33:54.088Z,27.55
2023-05-06T03:34:54.154Z,29.48
2023-05-06T03:35:54.226Z,27.47
2023-05-06T03:36:54.282Z,30.37
2023-05-06T03:37:54.366Z,25.08
2023-05-06T03:38:54.386Z,28.38
2023-05-06T03:39:54.493Z,27.67
2023-05-06T03:40:54.557Z,30.19
2023-05-06T03:41:54.610Z,31.96
2023-05-06T03:42:54.669Z,29.21
2023-05-06T03:43:54.701Z,31.16
2023-05-06T03:44:54.781Z,30.81
2023-05-06T03:45:54.847Z,29.87
2023-05-06T03:46:54.956Z,30.65
2023-05-06T03:47:54.979Z,27.88
2023-05-06T03:48:54.996Z,27.55
2023-05-06T03:49:55.029Z,27.95
2023-05-06T03:50:55.108Z,29.84
2023-05-06T03:51:55.158Z,26.66
2023-05-06T03:52:55.260Z,29.41
2023-05-06T03:53:55.265Z,28.29
2023-05-06T03:54:55.327Z,29.66
2023-05-06T03:55:55.368Z,27.54
2023-05-06T03:56:55.437Z,28.94
2023-05-06T03:57:55.489Z,26.86
2023-05-06T03:58:55.542Z,27.32
2023-05-06T03:59:55.630Z,31.28
2023-05-06T04:00:55.666Z,30.24
2023-05-06T04:01:55.746Z,29.40
2023-05-06T04:02:55.945Z,27.11
2023-05-06T04:03:55.912Z,27.35
2023-05-06T04:04:55.881Z,30.12
2023-05-06T04:05:55.952Z,29.07
2023-05-06T04:06:55.997Z,29.57
2023-05-06T04:07:56.094Z,31.28
2023-05-06T04:08:56.130Z,29.43
2023-05-06T04:09:56.184Z,31.36
2023-05-06T04:10:56.231Z,33.41
2023-05-06T04:11:56.302Z,30.70
2023-05-06T04:12:56.375Z,32.28
2023-05-06T04:13:56.405Z,31.12
2023-05-06T04:14:56.464Z,30.09
2023-05-06T04:15:56.541Z,28.25
2023-05-06T04:16:56.564Z,30.14
2023-05-06T04:17:56.672Z,27.80
2023-05-06T04:18:56.757Z,30.93
2023-05-06T04:19:56.887Z,30.73
2023-05-06T04:20:56.818Z,31.12
2023-05-06T04:21:56.870Z,32.37
2023-05-06T04:22:56.922Z,28.95
2023-05-06T04:23:56.973Z,33.03
2023-05-06T04:24:57.005Z,28.29
2023-05-06T04:25:57.110Z,30.21
2023-05-06T04:26:57.147Z,30.68
2023-05-06T04:27:57.165Z,30.98
2023-05-06T04:28:57.241Z,29.49
2023-05-06T04:29:57.288Z,30.66
2023-05-06T04:30:57.361Z,31.14
2023-05-06T04:31:57.458Z,29.41
2023-05-06T04:32:57.498Z,31.72
2023-05-06T04:33:57.509Z,27.96
2023-05-06T04:34:57.587Z,29.20
2023-05-06T04:35:57.615Z,27.28
2023-05-06T04:36:57.713Z,32.26
2023-05-06T04:37:57.754Z,31.83
2023-05-06T04:38:57.821Z,29.91
2023-05-06T04:39:57.852Z,29.83
2023-05-06T04:40:57.939Z,28.20
2023-05-06T04:41:57.991Z,28.29
2023-05-06T04:42:58.022Z,27.62
2023-05-06T04:43:58.108Z,32.37
2023-05-06T04:44:58.171Z,27.50
2023-05-06T04:45:58.235Z,29.74
2023-05-06T04:46:58.256Z,28.84
2023-05-06T04:47:58.354Z,28.67
2023-05-06T04:48:58.427Z,31.41
2023-05-06T04:49:58.461Z,28.77
2023-05-06T04:50:58.573Z,26.03
2023-05-06T04:51:58.545Z,30.37
2023-05-06T04:52:58.650Z,30.72
2023-05-06T04:53:58.687Z,29.06
2023-05-06T04:54:58.760Z,31.07
2023-05-06T04:55:58.887Z,31.59
2023-05-06T04:56:58.872Z,30.62
2023-05-06T04:57:58.943Z,29.32
2023-05-06T04:58:58.999Z,27.54
2023-05-06T04:59:59.059Z,28.98
2023-05-06T05:00:59.174Z,31.28
2023-05-06T05:01:59.226Z,29.75
2023-05-06T05:02:59.347Z,28.71
2023-05-06T05:03:59.331Z,28.73
2023-05-06T05:04:59.362Z,30.95
2023-05-06T05:05:59.442Z,29.66
2023-05-06T05:06:59.593Z,28.07
2023-05-06T05:07:59.589Z,30.56
2023-05-06T05:08:59.876Z,27.28
2023-05-06T05:09:59.718Z,28.43
2023-05-06T05:10:59.769Z,28.77
2023-05-06T05:11:59.836Z,29.71
2023-05-06T05:12:59.934Z,29.73
2023-05-06T05:14:01.928Z,30.03
2023-05-06T05:15:00.049Z,27.33
2023-05-06T05:16:00.143Z,29.26
2023-05-06T05:17:00.170Z,31.61
2023-05-06T05:18:00.229Z,29.72
2023-05-06T05:19:02.288Z,29.67
2023-05-06T05:20:00.294Z,32.99
2023-05-06T05:21:00.232Z,33.50
2023-05-06T05:22:00.301Z,29.80
2023-05-06T05:23:00.256Z,28.63
2023-05-06T05:24:00.229Z,30.62
2023-05-06T05:25:00.204Z,30.46
2023-05-06T05:26:00.191Z,32.43
2023-05-06T05:27:00.215Z,28.18
2023-05-06T05:28:00.204Z,29.60
2023-05-06T05:29:00.174Z,27.80
2023-05-06T05:30:00.189Z,28.96
2023-05-06T05:31:00.226Z,28.36
2023-05-06T05:32:00.180Z,29.44
2023-05-06T05:33:00.279Z,30.45
2023-05-06T05:34:00.149Z,30.19
2023-05-06T05:35:00.171Z,28.47
2023-05-06T05:36:00.136Z,30.48
2023-05-06T05:37:00.117Z,29.65
2023-05-06T05:38:00.115Z,31.58
2023-05-06T05:39:00.086Z,31.68
2023-05-06T05:40:00.133Z,26.47
2023-05-06T05:41:00.123Z,30.75
2023-05-06T05:42:00.076Z,32.74
2023-05-06T05:43:00.128Z,30.95
2023-05-06T05:44:00.080Z,29.55
2023-05-06T05:45:00.055Z,30.08
2023-05-06T05:46:00.047Z,30.79
2023-05-06T05:47:00.045Z,33.41
2023-05-06T05:48:00.116Z,33.63
2023-05-06T05:48:59.996Z,29.73
2023-05-06T05:50:00.004Z,30.26
2023-05-06T05:51:00.039Z,33.13
2023-05-06T05:52:00.191Z,28.45
2023-05-06T05:53:00.161Z,26.85
2023-05-06T05:54:00.245Z,30.90
2023-05-06T05:55:00.336Z,33.49
2023-05-06T05:56:00.371Z,29.69
2023-05-06T05:57:00.412Z,31.15
2023-05-06T05:58:00.463Z,31.06
2023-05-06T05:59:00.524Z,32.68
2023-05-06T06:00:00.576Z,28.11
2023-05-06T06:01:00.658Z,30.93
2023-05-06T06:02:00.740Z,28.42
2023-05-06T06:03:01.070Z,30.10
2023-05-06T06:04:01.020Z,30.94
2023-05-06T06:05:00.896Z,28.83
2023-05-06T06:06:00.956Z,26.84
2023-05-06T06:07:01.021Z,31.99
2023-05-06T06:08:03.515Z,30.62
2023-05-06T06:09:01.050Z,32.59
2023-05-06T06:10:01.049Z,29.89
2023-05-06T06:11:01.123Z,32.65
2023-05-06T06:12:01.068Z,29.85
2023-05-06T06:13:01.129Z,32.20
2023-05-06T06:14:01.055Z,28.32
2023-05-06T06:15:01.033Z,30.62
2023-05-06T06:16:01.053Z,31.26
2023-05-06T06:17:01.057Z,30.62
2023-05-06T06:18:01.103Z,31.17
2023-05-06T06:19:01.010Z,31.48
2023-05-06T06:20:00.968Z,33.78
2023-05-06T06:21:00.994Z,27.55
2023-05-06T06:22:00.978Z,33.09
2023-05-06T06:23:01.004Z,33.69
2023-05-06T06:24:00.984Z,33.56
2023-05-06T06:25:00.994Z,32.60
2023-05-06T06:26:00.947Z,32.89
2023-05-06T06:27:00.987Z,32.99
2023-05-06T06:28:00.972Z,33.30
2023-05-06T06:29:01.829Z,32.24
2023-05-06T06:30:01.821Z,30.31
2023-05-06T06:31:00.924Z,34.77
2023-05-06T06:32:00.973Z,33.96
2023-05-06T06:33:00.953Z,28.60
2023-05-06T06:34:00.905Z,33.06
2023-05-06T06:35:00.875Z,33.29
2023-05-06T06:36:00.896Z,32.19
2023-05-06T06:37:00.855Z,34.07
2023-05-06T06:38:00.876Z,30.12
2023-05-06T06:39:00.861Z,34.10
2023-05-06T06:40:00.853Z,33.44
2023-05-06T06:41:00.867Z,34.62
2023-05-06T06:42:00.831Z,32.38
2023-05-06T06:43:00.948Z,32.90
2023-05-06T06:44:00.858Z,29.89
2023-05-06T06:45:00.875Z,35.05
2023-05-06T06:46:00.955Z,31.11
2023-05-06T06:47:00.999Z,32.95
2023-05-06T06:48:01.093Z,32.78
2023-05-06T06:49:01.095Z,30.76
2023-05-06T06:50:01.182Z,32.07
2023-05-06T06:51:01.283Z,34.73
2023-05-06T06:52:01.295Z,32.15
2023-05-06T06:53:01.387Z,30.78
2023-05-06T06:54:01.483Z,32.94
2023-05-06T06:55:01.505Z,33.18
2023-05-06T06:56:01.592Z,34.10
2023-05-06T06:57:01.611Z,36.29
2023-05-06T06:58:01.696Z,34.70
2023-05-06T06:59:01.733Z,34.13
2023-05-06T07:00:01.804Z,33.87
2023-05-06T07:01:01.891Z,34.65
2023-05-06T07:02:01.929Z,33.91
2023-05-06T07:03:02.019Z,35.67
2023-05-06T07:04:02.087Z,36.33
2023-05-06T07:05:02.106Z,36.59
2023-05-06T07:06:02.176Z,35.14
2023-05-06T07:07:02.245Z,34.48
2023-05-06T07:08:02.293Z,36.10
2023-05-06T07:09:02.363Z,38.50
2023-05-06T07:10:02.423Z,37.72
2023-05-06T07:11:02.485Z,34.57
2023-05-06T07:12:02.563Z,38.23
2023-05-06T07:13:02.675Z,35.37
2023-05-06T07:14:02.718Z,34.58
2023-05-06T07:15:02.753Z,34.92
2023-05-06T07:16:02.819Z,35.03
2023-05-06T07:17:02.917Z,35.86
2023-05-06T07:18:02.976Z,37.60
2023-05-06T07:19:03.007Z,36.80
2023-05-06T07:20:03.057Z,37.58
2023-05-06T07:21:03.145Z,35.75
2023-05-06T07:22:03.186Z,36.98
2023-05-06T07:23:03.239Z,37.46
2023-05-06T07:24:03.332Z,35.62
2023-05-06T07:25:03.367Z,37.46
2023-05-06T07:26:03.435Z,38.75
2023-05-06T07:27:03.492Z,38.03
2023-05-06T07:28:03.601Z,39.08
2023-05-06T07:29:03.616Z,38.20
2023-05-06T07:30:03.682Z,37.81
2023-05-06T07:31:03.869Z,35.28
2023-05-06T07:32:03.858Z,36.29
2023-05-06T07:33:03.890Z,37.83
2023-05-06T07:34:03.947Z,38.60
2023-05-06T07:35:04.062Z,36.03
2023-05-06T07:36:04.070Z,38.93
2023-05-06T07:37:04.147Z,39.67
2023-05-06T07:38:04.235Z,38.46
2023-05-06T07:39:04.260Z,40.07
2023-05-06T07:40:04.311Z,38.64
2023-05-06T07:41:04.360Z,41.69
2023-05-06T07:42:04.444Z,39.53
2023-05-06T07:43:04.538Z,39.63
2023-05-06T07:44:04.552Z,39.51
2023-05-06T07:45:04.616Z,37.20
2023-05-06T07:46:04.744Z,39.72
2023-05-06T07:47:04.958Z,38.41
2023-05-06T07:48:04.866Z,42.71
2023-05-06T07:49:04.874Z,38.39
2023-05-06T07:50:04.932Z,39.00
2023-05-06T07:51:04.995Z,41.18
2023-05-06T07:52:05.030Z,39.85
2023-05-06T07:53:05.122Z,40.87
2023-05-06T07:54:05.183Z,40.28
2023-05-06T07:55:05.189Z,42.50
2023-05-06T07:56:05.263Z,41.99
2023-05-06T07:57:05.346Z,41.54
2023-05-06T07:58:05.413Z,42.13
2023-05-06T07:59:05.474Z,41.39
2023-05-06T08:00:05.530Z,41.75
2023-05-06T08:01:05.578Z,42.56
2023-05-06T08:02:05.660Z,44.13
2023-05-06T08:03:05.879Z,43.13
2023-05-06T08:04:05.845Z,39.00
2023-05-06T08:05:05.836Z,42.47
2023-05-06T08:06:05.865Z,42.96
2023-05-06T08:07:05.940Z,42.04
2023-05-06T08:08:05.988Z,41.03
2023-05-06T08:09:06.058Z,42.07
2023-05-06T08:10:06.152Z,42.20
2023-05-06T08:11:06.190Z,42.12
2023-05-06T08:12:06.270Z,39.91
2023-05-06T08:13:06.363Z,43.94
2023-05-06T08:14:06.380Z,42.68
2023-05-06T08:15:06.463Z,42.54
2023-05-06T08:16:06.578Z,40.81
2023-05-06T08:17:06.613Z,41.52
2023-05-06T08:18:21.029Z,43.01
2023-05-06T08:19:07.774Z,43.20
2023-05-06T08:20:06.611Z,43.32
2023-05-06T08:21:06.596Z,43.69
2023-05-06T08:22:06.596Z,42.30
2023-05-06T08:23:06.582Z,45.15
2023-05-06T08:24:06.575Z,44.38
2023-05-06T08:25:06.607Z,44.59
2023-05-06T08:26:06.593Z,43.44
2023-05-06T08:27:06.633Z,41.19
2023-05-06T08:28:06.715Z,43.39
2023-05-06T08:29:06.757Z,42.45
2023-05-06T08:30:06.849Z,43.93
2023-05-06T08:31:06.889Z,42.98
2023-05-06T08:32:07.052Z,42.68
2023-05-06T08:33:07.084Z,42.80
2023-05-06T08:34:07.055Z,45.95
2023-05-06T08:35:07.142Z,41.67
2023-05-06T08:36:07.214Z,43.26
2023-05-06T08:37:07.243Z,42.39
2023-05-06T08:38:07.403Z,43.96
2023-05-06T08:39:07.366Z,43.44
2023-05-06T08:40:07.454Z,43.36
2023-05-06T08:41:07.516Z,43.83
2023-05-06T08:42:07.556Z,44.36
2023-05-06T08:43:07.632Z,41.70
2023-05-06T08:44:07.686Z,45.73
2023-05-06T08:45:07.854Z,43.56
2023-05-06T08:46:07.828Z,42.26
2023-05-06T08:47:07.872Z,44.16
2023-05-06T08:48:08.422Z,43.77
2023-05-06T08:49:07.996Z,41.56
2023-05-06T08:50:08.064Z,44.83
2023-05-06T08:51:08.200Z,43.17
2023-05-06T08:52:08.202Z,40.03
2023-05-06T08:53:08.269Z,41.17
2023-05-06T08:54:08.338Z,45.20
2023-05-06T08:55:08.593Z,43.84
2023-05-06T08:56:08.441Z,42.55
2023-05-06T08:57:10.258Z,43.92
2023-05-06T08:58:08.530Z,43.51
2023-05-06T08:59:08.514Z,44.62
2023-05-06T09:00:08.532Z,42.67
2023-05-06T09:01:08.560Z,43.30
2023-05-06T09:02:08.543Z,43.07
2023-05-06T09:03:08.547Z,42.03
2023-05-06T09:04:08.909Z,42.87
2023-05-06T09:05:08.573Z,43.00
2023-05-06T09:06:08.451Z,43.43
2023-05-06T09:07:08.493Z,41.42
2023-05-06T09:08:08.414Z,45.29
2023-05-06T09:09:08.402Z,42.79
2023-05-06T09:10:08.540Z,42.99
2023-05-06T09:11:08.411Z,44.60
2023-05-06T09:12:08.372Z,42.91
2023-05-06T09:13:08.437Z,43.64
2023-05-06T09:14:08.390Z,45.88
2023-05-06T09:15:08.656Z,43.79
2023-05-06T09:16:08.389Z,42.66
2023-05-06T09:17:08.402Z,42.45
2023-05-06T09:18:08.384Z,40.20
2023-05-06T09:19:08.376Z,43.71
2023-05-06T09:20:08.349Z,42.87
2023-05-06T09:21:08.346Z,41.52
2023-05-06T09:22:08.320Z,42.37
2023-05-06T09:23:08.329Z,41.88
2023-05-06T09:24:08.293Z,39.90
2023-05-06T09:25:08.420Z,41.88
2023-05-06T09:26:08.267Z,43.11
2023-05-06T09:27:10.420Z,41.42
2023-05-06T09:28:08.493Z,42.88
2023-05-06T09:29:08.539Z,42.25
2023-05-06T09:30:08.588Z,43.05
2023-05-06T09:31:08.667Z,41.85
2023-05-06T09:32:08.706Z,41.61
2023-05-06T09:33:08.848Z,42.74
2023-05-06T09:34:08.838Z,43.58
2023-05-06T09:35:09.073Z,43.99
2023-05-06T09:36:08.949Z,44.12
2023-05-06T09:37:09.011Z,42.50
2023-05-06T09:38:09.125Z,45.17
2023-05-06T09:39:09.485Z,43.62
2023-05-06T09:40:09.234Z,43.22
2023-05-06T09:41:09.288Z,42.20
2023-05-06T09:42:09.327Z,42.25
2023-05-06T09:43:09.403Z,42.40
2023-05-06T09:44:09.465Z,46.06
2023-05-06T09:45:09.743Z,42.94
2023-05-06T09:46:09.607Z,42.60
2023-05-06T09:47:09.639Z,40.81
2023-05-06T09:48:09.798Z,43.55
2023-05-06T09:49:09.778Z,43.34
2023-05-06T09:50:09.836Z,43.81
2023-05-06T09:51:09.919Z,41.91
2023-05-06T09:52:09.978Z,42.57
2023-05-06T09:53:10.010Z,44.08
2023-05-06T09:54:10.066Z,44.40
2023-05-06T09:55:10.474Z,42.99
2023-05-06T09:56:10.206Z,43.14
2023-05-06T09:57:10.274Z,44.97
2023-05-06T09:58:10.339Z,43.12
2023-05-06T09:59:10.386Z,41.50
2023-05-06T10:00:10.433Z,42.75
2023-05-06T10:01:11.148Z,40.33
2023-05-06T10:02:10.607Z,42.22
2023-05-06T10:03:10.739Z,39.77
2023-05-06T10:04:10.901Z,38.97
2023-05-06T10:05:11.328Z,43.38
2023-05-06T10:06:10.829Z,42.91
2023-05-06T10:07:10.856Z,43.33
2023-05-06T10:08:10.937Z,41.54
2023-05-06T10:09:11.006Z,41.36
2023-05-06T10:10:11.104Z,43.29
2023-05-06T10:11:11.192Z,44.21
2023-05-06T10:12:11.159Z,42.77
2023-05-06T10:13:11.232Z,40.83
2023-05-06T10:14:11.319Z,39.22
2023-05-06T10:15:11.684Z,43.52
2023-05-06T10:16:12.797Z,41.85
2023-05-06T10:17:11.501Z,43.86
2023-05-06T10:18:11.621Z,44.95
2023-05-06T10:19:11.648Z,40.82
2023-05-06T10:20:11.685Z,41.31
2023-05-06T10:21:11.769Z,43.19
2023-05-06T10:22:11.812Z,42.20
2023-05-06T10:23:11.887Z,40.61
2023-05-06T10:24:11.975Z,41.33
2023-05-06T10:25:12.130Z,43.38
2023-05-06T10:26:12.099Z,37.86
2023-05-06T10:27:12.213Z,42.31
2023-05-06T10:28:23.282Z,40.17
2023-05-06T10:29:13.205Z,40.53
2023-05-06T10:30:12.181Z,40.50
2023-05-06T10:31:12.231Z,40.58
2023-05-06T10:32:12.176Z,41.03
2023-05-06T10:33:12.167Z,43.18
2023-05-06T10:34:12.114Z,42.84
2023-05-06T10:35:12.395Z,44.86
2023-05-06T10:36:12.131Z,38.14
2023-05-06T10:37:12.186Z,40.48
2023-05-06T10:38:12.231Z,40.92
2023-05-06T10:39:12.482Z,40.54
2023-05-06T10:40:12.334Z,42.32
2023-05-06T10:41:12.374Z,41.54
2023-05-06T10:42:12.459Z,42.85
2023-05-06T10:43:12.509Z,42.05
2023-05-06T10:44:12.994Z,41.47
2023-05-06T10:45:12.774Z,43.68
2023-05-06T10:46:12.764Z,41.99
2023-05-06T10:47:12.734Z,39.26
2023-05-06T10:48:12.857Z,39.72
2023-05-06T10:49:12.876Z,44.11
2023-05-06T10:50:12.918Z,41.94
2023-05-06T10:51:12.995Z,42.46
2023-05-06T10:52:13.034Z,41.42
2023-05-06T10:53:13.075Z,43.42
2023-05-06T10:54:13.149Z,43.05
2023-05-06T10:55:13.223Z,41.63
2023-05-06T10:56:13.260Z,43.63
2023-05-06T10:57:13.355Z,42.81
2023-05-06T10:58:13.391Z,39.94
2023-05-06T10:59:13.571Z,41.58
2023-05-06T11:00:13.488Z,42.85
2023-05-06T11:01:13.646Z,43.25
2023-05-06T11:02:13.673Z,41.13
2023-05-06T11:03:13.876Z,41.06
2023-05-06T11:04:13.994Z,43.10
2023-05-06T11:05:13.780Z,42.77
2023-05-06T11:06:13.812Z,41.46
2023-05-06T11:07:13.874Z,43.18
2023-05-06T11:08:13.924Z,41.63
2023-05-06T11:09:14.008Z,42.01
2023-05-06T11:10:14.077Z,40.62
2023-05-06T11:11:14.098Z,40.63
2023-05-06T11:12:14.210Z,44.98
2023-05-06T11:13:14.281Z,42.66
2023-05-06T11:14:14.279Z,43.45
2023-05-06T11:15:14.404Z,39.32
2023-05-06T11:16:14.405Z,42.35
2023-05-06T11:17:14.511Z,39.16
2023-05-06T11:18:14.509Z,43.00
2023-05-06T11:19:14.569Z,42.27
2023-05-06T11:20:14.701Z,42.88
2023-05-06T11:21:14.714Z,40.34
2023-05-06T11:22:14.755Z,39.81
2023-05-06T11:23:14.810Z,39.88
2023-05-06T11:24:15.008Z,41.76
2023-05-06T11:25:14.911Z,40.62
2023-05-06T11:26:14.983Z,42.68
2023-05-06T11:27:15.045Z,42.74
2023-05-06T11:28:15.094Z,42.79
2023-05-06T11:29:15.489Z,39.89
2023-05-06T11:30:15.201Z,41.73
2023-05-06T11:31:15.385Z,42.36
2023-05-06T11:32:15.302Z,40.68
2023-05-06T11:33:15.383Z,41.94
2023-05-06T11:34:15.452Z,39.45
2023-05-06T11:35:15.451Z,41.56
2023-05-06T11:36:15.557Z,43.00
2023-05-06T11:37:15.568Z,42.22
2023-05-06T11:38:15.631Z,40.00
2023-05-06T11:39:16.014Z,41.71
2023-05-06T11:40:15.787Z,42.94
2023-05-06T11:41:15.794Z,39.77
2023-05-06T11:42:15.882Z,44.31
2023-05-06T11:43:15.956Z,45.63
2023-05-06T11:44:15.987Z,43.22
2023-05-06T11:45:16.053Z,43.84
2023-05-06T11:46:16.140Z,40.40
2023-05-06T11:47:16.226Z,41.62
2023-05-06T11:48:16.197Z,40.22
2023-05-06T11:49:16.270Z,42.27
2023-05-06T11:50:16.300Z,40.12
2023-05-06T11:51:16.437Z,41.14
2023-05-06T11:52:16.484Z,41.71
2023-05-06T11:53:16.476Z,41.55
2023-05-06T11:54:16.505Z,45.94
2023-05-06T11:55:16.563Z,41.48
2023-05-06T11:56:16.604Z,43.51
2023-05-06T11:57:16.651Z,44.14
2023-05-06T11:58:16.723Z,41.16
2023-05-06T11:59:16.778Z,41.44
2023-05-06T12:00:16.838Z,44.49
2023-05-06T12:01:16.865Z,42.42
2023-05-06T12:02:16.999Z,43.58
2023-05-06T12:03:17.200Z,43.65
2023-05-06T12:04:17.087Z,45.29
2023-05-06T12:05:17.101Z,48.08
2023-05-06T12:06:17.154Z,43.46
2023-05-06T12:07:17.235Z,44.63
2023-05-06T12:08:26.762Z,44.65
2023-05-06T12:09:18.246Z,44.87
2023-05-06T12:10:17.270Z,44.75
2023-05-06T12:11:17.238Z,44.92
2023-05-06T12:12:17.226Z,45.31
2023-05-06T12:13:17.238Z,41.36
2023-05-06T12:14:17.175Z,47.09
2023-05-06T12:15:17.193Z,44.42
2023-05-06T12:16:17.216Z,44.16
2023-05-06T12:17:17.166Z,48.47
2023-05-06T12:18:17.161Z,46.04
2023-05-06T12:19:17.193Z,44.28
2023-05-06T12:20:17.261Z,45.03
2023-05-06T12:21:17.293Z,45.89
2023-05-06T12:22:17.389Z,44.37
2023-05-06T12:23:17.395Z,46.08
2023-05-06T12:24:17.537Z,46.47
2023-05-06T12:25:17.505Z,44.21
2023-05-06T12:26:17.558Z,42.14
2023-05-06T12:27:17.616Z,45.14
2023-05-06T12:28:17.664Z,45.30
2023-05-06T12:29:17.747Z,47.51
2023-05-06T12:30:17.778Z,44.89
2023-05-06T12:31:17.896Z,43.80
2023-05-06T12:32:17.854Z,45.51
2023-05-06T12:33:17.948Z,45.99
2023-05-06T12:34:17.964Z,43.56
2023-05-06T12:35:18.158Z,47.97
2023-05-06T12:36:18.074Z,47.20
2023-05-06T12:37:18.131Z,46.08
2023-05-06T12:38:18.202Z,45.47
2023-05-06T12:39:18.234Z,42.00
2023-05-06T12:40:18.251Z,44.49
2023-05-06T12:41:18.287Z,43.17
2023-05-06T12:42:18.357Z,43.91
2023-05-06T12:43:18.425Z,45.83
2023-05-06T12:44:18.552Z,43.10
2023-05-06T12:45:18.520Z,45.26
2023-05-06T12:46:18.638Z,45.88
2023-05-06T12:47:18.610Z,45.82
2023-05-06T12:48:18.651Z,45.44
2023-05-06T12:49:19.037Z,45.24
2023-05-06T12:50:18.794Z,45.29
2023-05-06T12:51:18.944Z,47.26
2023-05-06T12:52:18.884Z,47.20
2023-05-06T12:53:18.928Z,44.47